Maggie — WDH2284 — position and weather

sailwx.info

Track history (hours):
 
Tides and Currents Weather Stations Pressure Air Temp Water Temp Dewpoint Dewpoint Depression Visibility Wind Speed Wind Dir Waves Ship Positions

Maggie

Owner: Happ, Scott M, Woodinville, WA. More information available from US FCC via Universal Licensing System.

Last reported at 2018-Apr-15 19:00 UTC. Time now 2018-Apr-23 13:43 UTC.
Position N 48°30' W 122°44'.

Length 13 m.

MMSI: 367596040.

Date/timePositionNaut miles runAvg speedWind from/ knotsBaromVisibWave heightAir tempDewpointWater temp
2018-Apr-15 19:00N 48°30' W 122°44'3 6.2
2018-Apr-15 18:29N 48°32' W 122°49'3 6.1
2018-Apr-15 18:00N 48°34' W 122°52'3 5.2
2018-Apr-15 17:30N 48°33' W 122°56'3 5.8
2018-Apr-15 17:00N 48°33' W 123°00'1 0.0
2018-Apr-14 20:08N 48°32' W 123°01'0 1.9
2018-Apr-14 20:00N 48°32' W 123°01'3 6.4
2018-Apr-14 19:30N 48°33' W 122°56'2 4.4
2018-Apr-14 18:58N 48°34' W 122°53'3 5.6
2018-Apr-14 18:30N 48°33' W 122°50'3 5.1
2018-Apr-14 18:00N 48°31' W 122°47'  
Track history (hours):
 
Tides and Currents Weather Stations Pressure Air Temp Water Temp Dewpoint Dewpoint Depression Visibility Wind Speed Wind Dir Waves Ship Positions

Maggie

Owner: Happ, Scott M, Woodinville, WA. More information available from US FCC via Universal Licensing System.

Last reported at 2018-Apr-15 19:00 UTC. Time now 2018-Apr-23 13:43 UTC.
Position N 48°30' W 122°44'.

Length 13 m.

MMSI: 367596040.

Date/timePositionNaut miles runAvg speedWind from/ knotsBaromVisibWave heightAir tempDewpointWater temp
2018-Apr-15 19:00N 48°30' W 122°44'3 6.2
2018-Apr-15 18:29N 48°32' W 122°49'3 6.1
2018-Apr-15 18:00N 48°34' W 122°52'3 5.2
2018-Apr-15 17:30N 48°33' W 122°56'3 5.8
2018-Apr-15 17:00N 48°33' W 123°00'1 0.0
2018-Apr-14 20:08N 48°32' W 123°01'0 1.9
2018-Apr-14 20:00N 48°32' W 123°01'3 6.4
2018-Apr-14 19:30N 48°33' W 122°56'2 4.4
2018-Apr-14 18:58N 48°34' W 122°53'3 5.6
2018-Apr-14 18:30N 48°33' W 122°50'3 5.1
2018-Apr-14 18:00N 48°31' W 122°47'  

Dump ship's entire track history